sensor_id;sensor_type;location;lat;lon;timestamp;P1;durP1;ratioP1;P2;durP2;ratioP2
29120;SDS011;16191;49.548;8.658;2023-07-28T00:00:37;5.35;;;2.88;;
29120;SDS011;16191;49.548;8.658;2023-07-28T00:03:04;4.00;;;3.03;;
29120;SDS011;16191;49.548;8.658;2023-07-28T00:05:31;5.53;;;3.05;;
29120;SDS011;16191;49.548;8.658;2023-07-28T00:07:57;4.32;;;2.60;;
29120;SDS011;16191;49.548;8.658;2023-07-28T00:10:24;5.13;;;2.90;;
29120;SDS011;16191;49.548;8.658;2023-07-28T00:12:51;6.10;;;2.95;;
29120;SDS011;16191;49.548;8.658;2023-07-28T00:15:17;3.63;;;2.97;;
29120;SDS011;16191;49.548;8.658;2023-07-28T00:17:44;3.67;;;2.78;;
29120;SDS011;16191;49.548;8.658;2023-07-28T00:20:11;6.32;;;2.88;;
29120;SDS011;16191;49.548;8.658;2023-07-28T00:22:37;4.75;;;2.70;;
29120;SDS011;16191;49.548;8.658;2023-07-28T00:25:04;4.10;;;2.47;;
29120;SDS011;16191;49.548;8.658;2023-07-28T00:27:31;6.63;;;2.53;;
29120;SDS011;16191;49.548;8.658;2023-07-28T00:29:58;5.68;;;2.90;;
29120;SDS011;16191;49.548;8.658;2023-07-28T00:32:24;4.82;;;2.75;;
29120;SDS011;16191;49.548;8.658;2023-07-28T00:34:51;5.47;;;3.00;;
29120;SDS011;16191;49.548;8.658;2023-07-28T00:37:17;4.32;;;3.00;;
29120;SDS011;16191;49.548;8.658;2023-07-28T00:39:45;4.05;;;2.47;;
29120;SDS011;16191;49.548;8.658;2023-07-28T00:42:11;6.85;;;3.00;;
29120;SDS011;16191;49.548;8.658;2023-07-28T00:44:38;4.03;;;2.90;;
29120;SDS011;16191;49.548;8.658;2023-07-28T00:47:04;4.88;;;2.60;;
29120;SDS011;16191;49.548;8.658;2023-07-28T00:49:31;4.80;;;2.63;;
29120;SDS011;16191;49.548;8.658;2023-07-28T00:51:58;5.60;;;2.90;;
29120;SDS011;16191;49.548;8.658;2023-07-28T00:54:25;4.40;;;2.88;;
29120;SDS011;16191;49.548;8.658;2023-07-28T00:56:52;3.17;;;2.88;;
29120;SDS011;16191;49.548;8.658;2023-07-28T00:59:18;3.25;;;2.60;;
29120;SDS011;16191;49.548;8.658;2023-07-28T01:01:45;4.78;;;2.70;;
29120;SDS011;16191;49.548;8.658;2023-07-28T01:04:12;3.60;;;2.50;;
29120;SDS011;16191;49.548;8.658;2023-07-28T01:09:35;3.58;;;2.67;;
29120;SDS011;16191;49.548;8.658;2023-07-28T01:12:09;3.03;;;2.55;;
29120;SDS011;16191;49.548;8.658;2023-07-28T01:14:36;4.35;;;2.53;;
29120;SDS011;16191;49.548;8.658;2023-07-28T01:17:02;5.68;;;2.70;;
29120;SDS011;16191;49.548;8.658;2023-07-28T01:19:29;3.28;;;2.42;;
29120;SDS011;16191;49.548;8.658;2023-07-28T01:22:04;4.95;;;2.80;;
29120;SDS011;16191;49.548;8.658;2023-07-28T01:27:58;4.72;;;2.75;;
29120;SDS011;16191;49.548;8.658;2023-07-28T01:30:46;8.63;;;2.92;;
29120;SDS011;16191;49.548;8.658;2023-07-28T01:33:33;4.38;;;2.83;;
29120;SDS011;16191;49.548;8.658;2023-07-28T01:36:20;3.83;;;2.65;;
29120;SDS011;16191;49.548;8.658;2023-07-28T01:39:06;3.70;;;2.60;;
29120;SDS011;16191;49.548;8.658;2023-07-28T01:41:53;5.03;;;3.00;;
29120;SDS011;16191;49.548;8.658;2023-07-28T01:44:20;4.35;;;2.90;;
29120;SDS011;16191;49.548;8.658;2023-07-28T01:46:46;5.20;;;3.10;;
29120;SDS011;16191;49.548;8.658;2023-07-28T01:49:13;4.05;;;2.53;;
29120;SDS011;16191;49.548;8.658;2023-07-28T01:51:39;5.10;;;2.80;;
29120;SDS011;16191;49.548;8.658;2023-07-28T01:54:06;5.57;;;2.90;;
29120;SDS011;16191;49.548;8.658;2023-07-28T01:56:33;5.57;;;3.25;;
29120;SDS011;16191;49.548;8.658;2023-07-28T01:59:00;5.78;;;2.53;;
29120;SDS011;16191;49.548;8.658;2023-07-28T02:01:29;3.38;;;3.03;;
29120;SDS011;16191;49.548;8.658;2023-07-28T02:03:56;4.35;;;2.80;;
29120;SDS011;16191;49.548;8.658;2023-07-28T02:06:22;6.40;;;2.80;;
29120;SDS011;16191;49.548;8.658;2023-07-28T02:08:49;4.72;;;2.78;;
29120;SDS011;16191;49.548;8.658;2023-07-28T02:11:16;6.28;;;3.25;;
29120;SDS011;16191;49.548;8.658;2023-07-28T02:13:42;4.70;;;3.10;;
29120;SDS011;16191;49.548;8.658;2023-07-28T02:16:15;4.80;;;2.70;;
29120;SDS011;16191;49.548;8.658;2023-07-28T02:18:41;7.72;;;3.20;;
29120;SDS011;16191;49.548;8.658;2023-07-28T02:21:08;5.13;;;3.00;;
29120;SDS011;16191;49.548;8.658;2023-07-28T02:23:35;4.85;;;3.05;;
29120;SDS011;16191;49.548;8.658;2023-07-28T02:26:01;14.80;;;2.60;;
29120;SDS011;16191;49.548;8.658;2023-07-28T02:28:28;4.80;;;2.65;;
29120;SDS011;16191;49.548;8.658;2023-07-28T02:30:55;4.10;;;2.92;;
29120;SDS011;16191;49.548;8.658;2023-07-28T02:33:22;4.90;;;2.60;;
29120;SDS011;16191;49.548;8.658;2023-07-28T02:35:49;8.95;;;3.05;;
29120;SDS011;16191;49.548;8.658;2023-07-28T02:38:15;4.93;;;2.88;;
29120;SDS011;16191;49.548;8.658;2023-07-28T02:40:42;4.15;;;2.72;;
29120;SDS011;16191;49.548;8.658;2023-07-28T02:43:09;5.57;;;3.05;;
29120;SDS011;16191;49.548;8.658;2023-07-28T02:45:35;4.88;;;2.67;;
29120;SDS011;16191;49.548;8.658;2023-07-28T02:48:02;3.67;;;2.63;;
29120;SDS011;16191;49.548;8.658;2023-07-28T02:50:29;4.13;;;3.10;;
29120;SDS011;16191;49.548;8.658;2023-07-28T02:52:55;5.93;;;3.00;;
29120;SDS011;16191;49.548;8.658;2023-07-28T02:55:22;5.13;;;2.63;;
29120;SDS011;16191;49.548;8.658;2023-07-28T02:57:49;5.28;;;3.05;;
29120;SDS011;16191;49.548;8.658;2023-07-28T03:00:15;5.78;;;2.80;;
29120;SDS011;16191;49.548;8.658;2023-07-28T03:02:42;3.78;;;2.63;;
29120;SDS011;16191;49.548;8.658;2023-07-28T03:05:09;6.55;;;2.70;;
29120;SDS011;16191;49.548;8.658;2023-07-28T03:08:01;3.47;;;2.65;;
29120;SDS011;16191;49.548;8.658;2023-07-28T03:10:28;6.80;;;2.92;;
29120;SDS011;16191;49.548;8.658;2023-07-28T03:12:55;3.10;;;2.22;;
29120;SDS011;16191;49.548;8.658;2023-07-28T03:15:22;5.30;;;3.13;;
29120;SDS011;16191;49.548;8.658;2023-07-28T03:17:49;5.00;;;2.80;;
29120;SDS011;16191;49.548;8.658;2023-07-28T03:20:16;3.55;;;2.50;;
29120;SDS011;16191;49.548;8.658;2023-07-28T03:22:43;6.90;;;2.50;;
29120;SDS011;16191;49.548;8.658;2023-07-28T03:25:10;3.63;;;2.53;;
29120;SDS011;16191;49.548;8.658;2023-07-28T03:27:38;2.80;;;2.10;;
29120;SDS011;16191;49.548;8.658;2023-07-28T03:30:05;4.25;;;2.65;;
29120;SDS011;16191;49.548;8.658;2023-07-28T03:32:38;3.63;;;2.60;;
29120;SDS011;16191;49.548;8.658;2023-07-28T03:35:05;3.90;;;2.60;;
29120;SDS011;16191;49.548;8.658;2023-07-28T03:37:36;3.47;;;2.50;;
29120;SDS011;16191;49.548;8.658;2023-07-28T03:40:03;4.07;;;2.42;;
29120;SDS011;16191;49.548;8.658;2023-07-28T03:42:38;3.67;;;2.78;;
29120;SDS011;16191;49.548;8.658;2023-07-28T03:45:05;4.05;;;2.38;;
29120;SDS011;16191;49.548;8.658;2023-07-28T03:47:33;7.20;;;3.05;;
29120;SDS011;16191;49.548;8.658;2023-07-28T03:49:59;4.65;;;2.72;;
29120;SDS011;16191;49.548;8.658;2023-07-28T03:52:26;4.03;;;2.40;;
29120;SDS011;16191;49.548;8.658;2023-07-28T03:54:52;4.80;;;2.53;;
29120;SDS011;16191;49.548;8.658;2023-07-28T03:57:19;3.55;;;2.53;;
29120;SDS011;16191;49.548;8.658;2023-07-28T03:59:46;3.55;;;2.30;;
29120;SDS011;16191;49.548;8.658;2023-07-28T04:02:12;6.88;;;2.92;;
29120;SDS011;16191;49.548;8.658;2023-07-28T04:04:39;5.15;;;3.05;;
29120;SDS011;16191;49.548;8.658;2023-07-28T04:07:06;2.83;;;2.50;;
29120;SDS011;16191;49.548;8.658;2023-07-28T04:09:33;4.35;;;2.45;;
29120;SDS011;16191;49.548;8.658;2023-07-28T04:12:00;3.70;;;2.75;;
29120;SDS011;16191;49.548;8.658;2023-07-28T04:14:26;4.10;;;2.38;;
29120;SDS011;16191;49.548;8.658;2023-07-28T04:16:53;3.25;;;2.60;;
29120;SDS011;16191;49.548;8.658;2023-07-28T04:19:19;3.50;;;2.45;;
29120;SDS011;16191;49.548;8.658;2023-07-28T04:21:46;3.78;;;2.42;;
29120;SDS011;16191;49.548;8.658;2023-07-28T04:24:13;4.20;;;2.15;;
29120;SDS011;16191;49.548;8.658;2023-07-28T04:26:46;4.75;;;2.80;;
29120;SDS011;16191;49.548;8.658;2023-07-28T04:31:42;3.08;;;2.42;;
29120;SDS011;16191;49.548;8.658;2023-07-28T04:34:12;2.63;;;2.20;;
29120;SDS011;16191;49.548;8.658;2023-07-28T04:37:02;2.58;;;2.30;;
29120;SDS011;16191;49.548;8.658;2023-07-28T04:39:40;2.90;;;2.20;;
29120;SDS011;16191;49.548;8.658;2023-07-28T04:42:07;3.33;;;2.22;;
29120;SDS011;16191;49.548;8.658;2023-07-28T04:44:37;2.63;;;2.42;;
29120;SDS011;16191;49.548;8.658;2023-07-28T04:47:06;4.10;;;2.10;;
29120;SDS011;16191;49.548;8.658;2023-07-28T04:49:32;7.07;;;2.40;;
29120;SDS011;16191;49.548;8.658;2023-07-28T04:52:08;5.72;;;2.10;;
29120;SDS011;16191;49.548;8.658;2023-07-28T04:57:52;4.07;;;2.45;;
29120;SDS011;16191;49.548;8.658;2023-07-28T05:00:21;2.28;;;2.08;;
29120;SDS011;16191;49.548;8.658;2023-07-28T05:02:48;4.40;;;2.08;;
29120;SDS011;16191;49.548;8.658;2023-07-28T05:05:17;3.80;;;2.13;;
29120;SDS011;16191;49.548;8.658;2023-07-28T05:07:44;3.35;;;2.08;;
29120;SDS011;16191;49.548;8.658;2023-07-28T05:10:13;2.83;;;2.13;;
29120;SDS011;16191;49.548;8.658;2023-07-28T05:12:40;3.22;;;2.25;;
29120;SDS011;16191;49.548;8.658;2023-07-28T05:15:07;4.80;;;2.00;;
29120;SDS011;16191;49.548;8.658;2023-07-28T05:17:38;5.47;;;2.25;;
29120;SDS011;16191;49.548;8.658;2023-07-28T05:20:24;5.03;;;1.90;;
29120;SDS011;16191;49.548;8.658;2023-07-28T05:23:06;2.80;;;1.88;;
29120;SDS011;16191;49.548;8.658;2023-07-28T05:25:33;4.28;;;2.00;;
29120;SDS011;16191;49.548;8.658;2023-07-28T05:27:59;5.93;;;2.10;;
29120;SDS011;16191;49.548;8.658;2023-07-28T05:30:28;2.28;;;1.75;;
29120;SDS011;16191;49.548;8.658;2023-07-28T05:32:57;4.85;;;2.10;;
29120;SDS011;16191;49.548;8.658;2023-07-28T05:35:30;5.25;;;2.15;;
29120;SDS011;16191;49.548;8.658;2023-07-28T05:37:57;3.88;;;2.08;;
29120;SDS011;16191;49.548;8.658;2023-07-28T05:40:24;3.08;;;1.95;;
29120;SDS011;16191;49.548;8.658;2023-07-28T05:42:50;2.15;;;1.90;;
29120;SDS011;16191;49.548;8.658;2023-07-28T05:45:17;2.10;;;1.90;;
29120;SDS011;16191;49.548;8.658;2023-07-28T05:47:44;2.38;;;1.85;;
29120;SDS011;16191;49.548;8.658;2023-07-28T05:50:11;2.42;;;1.80;;
29120;SDS011;16191;49.548;8.658;2023-07-28T05:52:38;2.90;;;1.80;;
29120;SDS011;16191;49.548;8.658;2023-07-28T05:55:04;1.75;;;1.60;;
29120;SDS011;16191;49.548;8.658;2023-07-28T05:57:31;2.30;;;1.80;;
29120;SDS011;16191;49.548;8.658;2023-07-28T06:00:02;3.20;;;2.08;;
29120;SDS011;16191;49.548;8.658;2023-07-28T06:02:39;1.83;;;1.60;;
29120;SDS011;16191;49.548;8.658;2023-07-28T06:05:08;3.28;;;1.90;;
29120;SDS011;16191;49.548;8.658;2023-07-28T06:07:35;2.95;;;1.83;;
29120;SDS011;16191;49.548;8.658;2023-07-28T06:10:01;1.52;;;1.42;;
29120;SDS011;16191;49.548;8.658;2023-07-28T06:12:29;3.08;;;1.80;;
29120;SDS011;16191;49.548;8.658;2023-07-28T06:14:56;2.83;;;2.00;;
29120;SDS011;16191;49.548;8.658;2023-07-28T06:17:22;3.50;;;1.98;;
29120;SDS011;16191;49.548;8.658;2023-07-28T06:19:49;2.95;;;1.98;;
29120;SDS011;16191;49.548;8.658;2023-07-28T06:22:16;1.95;;;1.80;;
29120;SDS011;16191;49.548;8.658;2023-07-28T06:24:44;1.92;;;1.70;;
29120;SDS011;16191;49.548;8.658;2023-07-28T06:27:11;6.00;;;2.13;;
29120;SDS011;16191;49.548;8.658;2023-07-28T06:29:39;3.58;;;2.03;;
29120;SDS011;16191;49.548;8.658;2023-07-28T06:32:05;4.55;;;1.90;;
29120;SDS011;16191;49.548;8.658;2023-07-28T06:34:34;4.43;;;1.70;;
29120;SDS011;16191;49.548;8.658;2023-07-28T06:37:00;2.45;;;1.95;;
29120;SDS011;16191;49.548;8.658;2023-07-28T06:39:27;1.80;;;1.58;;
29120;SDS011;16191;49.548;8.658;2023-07-28T06:41:55;4.40;;;1.88;;
29120;SDS011;16191;49.548;8.658;2023-07-28T06:44:21;3.78;;;1.92;;
29120;SDS011;16191;49.548;8.658;2023-07-28T06:46:48;4.65;;;1.60;;
29120;SDS011;16191;49.548;8.658;2023-07-28T06:49:16;2.30;;;1.90;;
29120;SDS011;16191;49.548;8.658;2023-07-28T06:51:43;2.40;;;1.98;;
29120;SDS011;16191;49.548;8.658;2023-07-28T06:54:10;3.83;;;1.95;;
29120;SDS011;16191;49.548;8.658;2023-07-28T06:56:39;3.42;;;1.70;;
29120;SDS011;16191;49.548;8.658;2023-07-28T06:59:06;2.00;;;1.80;;
29120;SDS011;16191;49.548;8.658;2023-07-28T07:01:43;5.00;;;2.25;;
29120;SDS011;16191;49.548;8.658;2023-07-28T07:04:10;3.00;;;1.90;;
29120;SDS011;16191;49.548;8.658;2023-07-28T07:06:37;6.22;;;2.08;;
29120;SDS011;16191;49.548;8.658;2023-07-28T07:09:04;3.92;;;2.13;;
29120;SDS011;16191;49.548;8.658;2023-07-28T07:11:33;3.78;;;2.05;;
29120;SDS011;16191;49.548;8.658;2023-07-28T07:14:00;3.35;;;2.08;;
29120;SDS011;16191;49.548;8.658;2023-07-28T07:16:27;3.55;;;1.95;;
29120;SDS011;16191;49.548;8.658;2023-07-28T07:18:54;3.20;;;1.70;;
29120;SDS011;16191;49.548;8.658;2023-07-28T07:21:20;4.70;;;2.30;;
29120;SDS011;16191;49.548;8.658;2023-07-28T07:23:47;4.07;;;2.25;;
29120;SDS011;16191;49.548;8.658;2023-07-28T07:26:26;3.45;;;2.05;;
29120;SDS011;16191;49.548;8.658;2023-07-28T07:28:52;4.28;;;2.35;;
29120;SDS011;16191;49.548;8.658;2023-07-28T07:31:19;3.78;;;2.67;;
29120;SDS011;16191;49.548;8.658;2023-07-28T07:33:46;4.43;;;2.30;;
29120;SDS011;16191;49.548;8.658;2023-07-28T07:36:16;3.45;;;2.50;;
29120;SDS011;16191;49.548;8.658;2023-07-28T07:38:45;5.15;;;2.05;;
29120;SDS011;16191;49.548;8.658;2023-07-28T07:41:13;3.20;;;2.20;;
29120;SDS011;16191;49.548;8.658;2023-07-28T07:43:46;4.03;;;2.00;;
29120;SDS011;16191;49.548;8.658;2023-07-28T07:46:14;32.17;;;3.58;;
29120;SDS011;16191;49.548;8.658;2023-07-28T07:48:41;5.78;;;2.67;;
29120;SDS011;16191;49.548;8.658;2023-07-28T07:51:08;6.18;;;2.30;;
29120;SDS011;16191;49.548;8.658;2023-07-28T07:53:35;6.13;;;2.20;;
29120;SDS011;16191;49.548;8.658;2023-07-28T07:56:05;3.42;;;2.10;;
29120;SDS011;16191;49.548;8.658;2023-07-28T07:58:33;26.63;;;4.38;;
29120;SDS011;16191;49.548;8.658;2023-07-28T08:01:00;3.55;;;2.30;;
29120;SDS011;16191;49.548;8.658;2023-07-28T08:03:27;7.30;;;3.03;;
29120;SDS011;16191;49.548;8.658;2023-07-28T08:05:54;6.25;;;3.25;;
29120;SDS011;16191;49.548;8.658;2023-07-28T08:08:21;3.53;;;2.65;;
29120;SDS011;16191;49.548;8.658;2023-07-28T08:10:48;5.22;;;2.70;;
29120;SDS011;16191;49.548;8.658;2023-07-28T08:13:16;4.30;;;2.58;;
29120;SDS011;16191;49.548;8.658;2023-07-28T08:15:43;6.63;;;3.20;;
29120;SDS011;16191;49.548;8.658;2023-07-28T08:18:13;4.55;;;2.72;;
29120;SDS011;16191;49.548;8.658;2023-07-28T08:23:07;3.28;;;2.33;;
29120;SDS011;16191;49.548;8.658;2023-07-28T08:25:37;5.80;;;2.30;;
29120;SDS011;16191;49.548;8.658;2023-07-28T08:28:04;3.97;;;2.15;;
29120;SDS011;16191;49.548;8.658;2023-07-28T08:30:31;5.63;;;2.22;;
29120;SDS011;16191;49.548;8.658;2023-07-28T08:32:58;5.57;;;2.20;;
29120;SDS011;16191;49.548;8.658;2023-07-28T08:35:25;7.78;;;2.08;;
29120;SDS011;16191;49.548;8.658;2023-07-28T08:37:52;3.63;;;2.45;;
29120;SDS011;16191;49.548;8.658;2023-07-28T08:40:19;2.38;;;1.77;;
29120;SDS011;16191;49.548;8.658;2023-07-28T08:42:46;3.33;;;2.40;;
29120;SDS011;16191;49.548;8.658;2023-07-28T08:45:13;3.03;;;2.17;;
29120;SDS011;16191;49.548;8.658;2023-07-28T08:47:40;6.53;;;1.90;;
29120;SDS011;16191;49.548;8.658;2023-07-28T08:50:07;4.22;;;2.10;;
29120;SDS011;16191;49.548;8.658;2023-07-28T08:52:34;4.18;;;2.25;;
29120;SDS011;16191;49.548;8.658;2023-07-28T08:55:00;2.40;;;1.70;;
29120;SDS011;16191;49.548;8.658;2023-07-28T08:57:27;2.65;;;1.88;;
29120;SDS011;16191;49.548;8.658;2023-07-28T08:59:54;2.00;;;1.80;;
29120;SDS011;16191;49.548;8.658;2023-07-28T09:02:21;2.65;;;1.90;;
29120;SDS011;16191;49.548;8.658;2023-07-28T09:04:48;4.38;;;2.25;;
29120;SDS011;16191;49.548;8.658;2023-07-28T09:07:15;4.47;;;1.90;;
29120;SDS011;16191;49.548;8.658;2023-07-28T09:09:42;3.35;;;1.77;;
29120;SDS011;16191;49.548;8.658;2023-07-28T09:12:10;2.10;;;1.90;;
29120;SDS011;16191;49.548;8.658;2023-07-28T09:14:37;1.92;;;1.83;;
29120;SDS011;16191;49.548;8.658;2023-07-28T09:17:08;2.97;;;1.75;;
29120;SDS011;16191;49.548;8.658;2023-07-28T09:19:49;2.65;;;1.92;;
29120;SDS011;16191;49.548;8.658;2023-07-28T09:22:20;5.05;;;1.77;;
29120;SDS011;16191;49.548;8.658;2023-07-28T09:24:48;3.05;;;1.83;;
29120;SDS011;16191;49.548;8.658;2023-07-28T09:27:23;3.80;;;1.83;;
29120;SDS011;16191;49.548;8.658;2023-07-28T09:29:52;4.18;;;1.80;;
29120;SDS011;16191;49.548;8.658;2023-07-28T09:32:28;1.98;;;1.70;;
29120;SDS011;16191;49.548;8.658;2023-07-28T09:35:07;3.80;;;1.98;;
29120;SDS011;16191;49.548;8.658;2023-07-28T09:37:39;4.88;;;1.55;;
29120;SDS011;16191;49.548;8.658;2023-07-28T09:40:10;4.33;;;1.63;;
29120;SDS011;16191;49.548;8.658;2023-07-28T09:42:43;2.40;;;1.85;;
29120;SDS011;16191;49.548;8.658;2023-07-28T09:45:12;2.58;;;1.67;;
29120;SDS011;16191;49.548;8.658;2023-07-28T09:47:57;3.20;;;1.98;;
29120;SDS011;16191;49.548;8.658;2023-07-28T09:50:26;2.28;;;1.90;;
29120;SDS011;16191;49.548;8.658;2023-07-28T09:52:58;2.28;;;1.92;;
29120;SDS011;16191;49.548;8.658;2023-07-28T09:55:29;4.88;;;1.98;;
29120;SDS011;16191;49.548;8.658;2023-07-28T09:57:58;3.80;;;1.70;;
29120;SDS011;16191;49.548;8.658;2023-07-28T10:00:30;3.85;;;1.30;;
29120;SDS011;16191;49.548;8.658;2023-07-28T10:02:58;2.17;;;1.60;;
29120;SDS011;16191;49.548;8.658;2023-07-28T10:05:25;3.63;;;1.70;;
29120;SDS011;16191;49.548;8.658;2023-07-28T10:07:52;3.35;;;1.40;;
29120;SDS011;16191;49.548;8.658;2023-07-28T10:10:20;4.65;;;1.30;;
29120;SDS011;16191;49.548;8.658;2023-07-28T10:12:48;2.22;;;1.10;;
29120;SDS011;16191;49.548;8.658;2023-07-28T10:15:17;5.03;;;1.50;;
29120;SDS011;16191;49.548;8.658;2023-07-28T10:17:54;1.23;;;1.10;;
29120;SDS011;16191;49.548;8.658;2023-07-28T10:20:28;1.33;;;1.10;;
29120;SDS011;16191;49.548;8.658;2023-07-28T10:25:37;1.85;;;1.23;;
29120;SDS011;16191;49.548;8.658;2023-07-28T10:28:05;5.63;;;1.67;;
29120;SDS011;16191;49.548;8.658;2023-07-28T10:30:37;2.55;;;1.33;;
29120;SDS011;16191;49.548;8.658;2023-07-28T10:33:05;1.63;;;1.20;;
29120;SDS011;16191;49.548;8.658;2023-07-28T10:35:31;1.80;;;1.33;;
29120;SDS011;16191;49.548;8.658;2023-07-28T10:38:46;2.13;;;1.05;;
29120;SDS011;16191;49.548;8.658;2023-07-28T10:41:14;2.55;;;1.20;;
29120;SDS011;16191;49.548;8.658;2023-07-28T10:43:43;3.38;;;2.03;;
29120;SDS011;16191;49.548;8.658;2023-07-28T10:46:13;1.70;;;1.17;;
29120;SDS011;16191;49.548;8.658;2023-07-28T10:48:43;2.28;;;1.20;;
29120;SDS011;16191;49.548;8.658;2023-07-28T10:51:12;1.85;;;1.40;;
29120;SDS011;16191;49.548;8.658;2023-07-28T10:53:45;2.42;;;1.42;;
29120;SDS011;16191;49.548;8.658;2023-07-28T10:56:13;1.75;;;1.50;;
29120;SDS011;16191;49.548;8.658;2023-07-28T10:58:40;1.98;;;1.33;;
29120;SDS011;16191;49.548;8.658;2023-07-28T11:01:06;2.00;;;1.20;;
29120;SDS011;16191;49.548;8.658;2023-07-28T11:03:33;2.50;;;1.50;;
29120;SDS011;16191;49.548;8.658;2023-07-28T11:06:00;2.17;;;1.25;;
29120;SDS011;16191;49.548;8.658;2023-07-28T11:08:27;1.83;;;1.60;;
29120;SDS011;16191;49.548;8.658;2023-07-28T11:10:54;5.30;;;1.45;;
29120;SDS011;16191;49.548;8.658;2023-07-28T11:13:20;1.40;;;1.20;;
29120;SDS011;16191;49.548;8.658;2023-07-28T11:16:06;5.78;;;1.35;;
29120;SDS011;16191;49.548;8.658;2023-07-28T11:18:34;8.80;;;1.50;;
29120;SDS011;16191;49.548;8.658;2023-07-28T11:21:00;2.13;;;1.42;;
29120;SDS011;16191;49.548;8.658;2023-07-28T11:23:27;1.42;;;1.33;;
29120;SDS011;16191;49.548;8.658;2023-07-28T11:25:55;2.47;;;1.70;;
29120;SDS011;16191;49.548;8.658;2023-07-28T11:28:21;3.88;;;1.63;;
29120;SDS011;16191;49.548;8.658;2023-07-28T11:30:48;3.75;;;1.55;;
29120;SDS011;16191;49.548;8.658;2023-07-28T11:33:15;2.10;;;1.90;;
29120;SDS011;16191;49.548;8.658;2023-07-28T11:35:43;2.03;;;1.73;;
29120;SDS011;16191;49.548;8.658;2023-07-28T11:38:11;1.70;;;1.60;;
29120;SDS011;16191;49.548;8.658;2023-07-28T11:40:40;4.33;;;1.40;;
29120;SDS011;16191;49.548;8.658;2023-07-28T11:43:07;3.17;;;1.77;;
29120;SDS011;16191;49.548;8.658;2023-07-28T11:45:34;6.78;;;2.17;;
29120;SDS011;16191;49.548;8.658;2023-07-28T11:48:02;3.35;;;1.65;;
29120;SDS011;16191;49.548;8.658;2023-07-28T11:50:34;2.17;;;1.50;;
29120;SDS011;16191;49.548;8.658;2023-07-28T11:53:03;2.20;;;1.60;;
29120;SDS011;16191;49.548;8.658;2023-07-28T11:55:31;3.08;;;1.80;;
29120;SDS011;16191;49.548;8.658;2023-07-28T11:57:59;2.70;;;1.50;;
29120;SDS011;16191;49.548;8.658;2023-07-28T12:00:29;3.33;;;1.65;;
29120;SDS011;16191;49.548;8.658;2023-07-28T12:03:00;1.92;;;1.50;;
29120;SDS011;16191;49.548;8.658;2023-07-28T12:05:38;3.72;;;1.80;;
29120;SDS011;16191;49.548;8.658;2023-07-28T12:08:32;3.97;;;1.50;;
29120;SDS011;16191;49.548;8.658;2023-07-28T12:11:00;3.35;;;1.73;;
29120;SDS011;16191;49.548;8.658;2023-07-28T12:15:57;3.17;;;1.77;;
29120;SDS011;16191;49.548;8.658;2023-07-28T12:18:30;1.98;;;1.35;;
29120;SDS011;16191;49.548;8.658;2023-07-28T12:21:00;1.77;;;1.42;;
29120;SDS011;16191;49.548;8.658;2023-07-28T12:23:27;1.45;;;1.27;;
29120;SDS011;16191;49.548;8.658;2023-07-28T12:25:57;2.20;;;1.42;;
29120;SDS011;16191;49.548;8.658;2023-07-28T12:28:25;2.05;;;1.42;;
29120;SDS011;16191;49.548;8.658;2023-07-28T12:30:52;2.67;;;1.58;;
29120;SDS011;16191;49.548;8.658;2023-07-28T12:33:22;2.58;;;1.30;;
29120;SDS011;16191;49.548;8.658;2023-07-28T12:35:49;1.52;;;1.25;;
29120;SDS011;16191;49.548;8.658;2023-07-28T12:38:18;3.83;;;1.17;;
29120;SDS011;16191;49.548;8.658;2023-07-28T12:40:48;1.08;;;1.00;;
29120;SDS011;16191;49.548;8.658;2023-07-28T12:43:17;1.25;;;1.15;;
29120;SDS011;16191;49.548;8.658;2023-07-28T12:45:47;1.45;;;1.00;;
29120;SDS011;16191;49.548;8.658;2023-07-28T12:48:17;4.78;;;1.10;;
29120;SDS011;16191;49.548;8.658;2023-07-28T12:50:47;1.30;;;1.00;;
29120;SDS011;16191;49.548;8.658;2023-07-28T12:53:13;1.13;;;0.90;;
29120;SDS011;16191;49.548;8.658;2023-07-28T12:55:47;2.53;;;1.15;;
29120;SDS011;16191;49.548;8.658;2023-07-28T12:58:16;1.02;;;0.73;;
29120;SDS011;16191;49.548;8.658;2023-07-28T13:03:16;1.98;;;1.35;;
29120;SDS011;16191;49.548;8.658;2023-07-28T13:05:43;1.40;;;0.93;;
29120;SDS011;16191;49.548;8.658;2023-07-28T13:08:10;3.20;;;1.40;;
29120;SDS011;16191;49.548;8.658;2023-07-28T13:10:37;1.67;;;1.00;;
29120;SDS011;16191;49.548;8.658;2023-07-28T13:13:07;5.55;;;1.20;;
29120;SDS011;16191;49.548;8.658;2023-07-28T13:15:39;2.80;;;0.95;;
29120;SDS011;16191;49.548;8.658;2023-07-28T13:18:06;1.17;;;0.93;;
29120;SDS011;16191;49.548;8.658;2023-07-28T13:20:33;3.20;;;1.20;;
29120;SDS011;16191;49.548;8.658;2023-07-28T13:22:59;3.03;;;1.20;;
29120;SDS011;16191;49.548;8.658;2023-07-28T13:25:26;4.50;;;1.30;;
29120;SDS011;16191;49.548;8.658;2023-07-28T13:27:53;1.38;;;1.05;;
29120;SDS011;16191;49.548;8.658;2023-07-28T13:30:20;1.63;;;1.02;;
29120;SDS011;16191;49.548;8.658;2023-07-28T13:32:46;5.22;;;1.00;;
29120;SDS011;16191;49.548;8.658;2023-07-28T13:35:13;3.40;;;1.20;;
29120;SDS011;16191;49.548;8.658;2023-07-28T13:37:41;1.92;;;1.10;;
29120;SDS011;16191;49.548;8.658;2023-07-28T13:40:08;3.28;;;1.27;;
29120;SDS011;16191;49.548;8.658;2023-07-28T13:42:38;2.58;;;1.45;;
29120;SDS011;16191;49.548;8.658;2023-07-28T13:45:05;3.47;;;1.50;;
29120;SDS011;16191;49.548;8.658;2023-07-28T13:47:32;2.33;;;1.70;;
29120;SDS011;16191;49.548;8.658;2023-07-28T13:49:58;2.55;;;1.48;;
29120;SDS011;16191;49.548;8.658;2023-07-28T13:52:25;3.47;;;1.80;;
29120;SDS011;16191;49.548;8.658;2023-07-28T13:54:53;2.45;;;1.80;;
29120;SDS011;16191;49.548;8.658;2023-07-28T13:57:22;2.80;;;2.00;;
29120;SDS011;16191;49.548;8.658;2023-07-28T13:59:49;2.88;;;1.77;;
29120;SDS011;16191;49.548;8.658;2023-07-28T14:02:16;4.07;;;1.80;;
29120;SDS011;16191;49.548;8.658;2023-07-28T14:04:44;2.35;;;2.10;;
29120;SDS011;16191;49.548;8.658;2023-07-28T14:07:11;4.45;;;1.95;;
29120;SDS011;16191;49.548;8.658;2023-07-28T14:09:38;7.22;;;2.17;;
29120;SDS011;16191;49.548;8.658;2023-07-28T14:12:05;3.47;;;2.10;;
29120;SDS011;16191;49.548;8.658;2023-07-28T14:14:33;3.20;;;2.47;;
29120;SDS011;16191;49.548;8.658;2023-07-28T14:16:59;5.78;;;2.50;;
29120;SDS011;16191;49.548;8.658;2023-07-28T14:19:26;4.38;;;2.47;;
29120;SDS011;16191;49.548;8.658;2023-07-28T14:21:53;7.57;;;2.78;;
29120;SDS011;16191;49.548;8.658;2023-07-28T14:24:20;3.60;;;2.60;;
29120;SDS011;16191;49.548;8.658;2023-07-28T14:26:46;6.18;;;2.85;;
29120;SDS011;16191;49.548;8.658;2023-07-28T14:29:13;4.63;;;2.95;;
29120;SDS011;16191;49.548;8.658;2023-07-28T14:31:40;5.20;;;2.67;;
29120;SDS011;16191;49.548;8.658;2023-07-28T14:34:07;5.30;;;2.63;;
29120;SDS011;16191;49.548;8.658;2023-07-28T14:36:33;6.10;;;3.22;;
29120;SDS011;16191;49.548;8.658;2023-07-28T14:39:02;5.70;;;3.10;;
29120;SDS011;16191;49.548;8.658;2023-07-28T14:41:29;4.22;;;2.78;;
29120;SDS011;16191;49.548;8.658;2023-07-28T14:43:56;4.35;;;3.13;;
29120;SDS011;16191;49.548;8.658;2023-07-28T14:46:23;7.90;;;3.35;;
29120;SDS011;16191;49.548;8.658;2023-07-28T14:48:52;4.32;;;2.90;;
29120;SDS011;16191;49.548;8.658;2023-07-28T14:51:19;6.70;;;2.95;;
29120;SDS011;16191;49.548;8.658;2023-07-28T14:53:47;6.18;;;3.08;;
29120;SDS011;16191;49.548;8.658;2023-07-28T14:56:14;6.25;;;3.60;;
29120;SDS011;16191;49.548;8.658;2023-07-28T14:58:42;6.10;;;3.17;;
29120;SDS011;16191;49.548;8.658;2023-07-28T15:01:10;5.65;;;3.47;;
29120;SDS011;16191;49.548;8.658;2023-07-28T15:03:37;5.40;;;3.00;;
29120;SDS011;16191;49.548;8.658;2023-07-28T15:06:04;5.10;;;3.40;;
29120;SDS011;16191;49.548;8.658;2023-07-28T15:08:31;4.65;;;3.10;;
29120;SDS011;16191;49.548;8.658;2023-07-28T15:10:58;5.65;;;3.20;;
29120;SDS011;16191;49.548;8.658;2023-07-28T15:13:25;4.47;;;2.72;;
29120;SDS011;16191;49.548;8.658;2023-07-28T15:15:52;4.00;;;2.60;;
29120;SDS011;16191;49.548;8.658;2023-07-28T15:18:18;4.55;;;2.60;;